Time;durP1;ratioP1;P1;durP2;ratioP2;P2;SDS_P1;SDS_P2;PMS_P1;PMS_P2;Temp;Humidity;BMP_temperature;BMP_pressure;BME280_temperature;BME280_humidity;BME280_pressure;Samples;Min_cycle;Max_cycle;Signal;HPM_P1;HPM_P2
2022/01/09 00:03:32;;;;;;;7.93;4.95;;;;;;;;;;10420252;28;20218;-63
2022/01/09 00:08:33;;;;;;;24.40;9.52;;;;;;;;;;10420669;28;20278;-63
2022/01/09 00:13:34;;;;;;;4.75;4.00;;;;;;;;;;10420733;28;20215;-63
2022/01/09 00:18:35;;;;;;;8.45;7.10;;;;;;;;;;10412912;28;20218;-63
2022/01/09 00:23:36;;;;;;;5.97;5.40;;;;;;;;;;10414962;28;20856;-63
2022/01/09 00:28:37;;;;;;;7.50;4.53;;;;;;;;;;10412937;28;20203;-63
2022/01/09 00:33:38;;;;;;;9.10;6.47;;;;;;;;;;10410815;28;20228;-63
2022/01/09 00:38:39;;;;;;;5.60;3.38;;;;;;;;;;10420334;28;20678;-63
2022/01/09 00:43:40;;;;;;;4.63;4.22;;;;;;;;;;10419512;28;20274;-63
2022/01/09 00:48:41;;;;;;;6.07;3.60;;;;;;;;;;10418169;28;20218;-63
2022/01/09 00:53:42;;;;;;;5.00;3.88;;;;;;;;;;10418124;28;20589;-63
2022/01/09 00:58:43;;;;;;;3.70;2.78;;;;;;;;;;10416545;28;20188;-62
2022/01/09 01:03:44;;;;;;;4.35;3.17;;;;;;;;;;10417293;28;20200;-63
2022/01/09 01:08:45;;;;;;;3.63;3.30;;;;;;;;;;10417685;28;20198;-63
2022/01/09 01:13:46;;;;;;;3.97;2.75;;;;;;;;;;10416520;28;20301;-64
2022/01/09 01:18:48;;;;;;;3.75;3.42;;;;;;;;;;10417993;28;20227;-63
2022/01/09 01:23:49;;;;;;;3.22;3.03;;;;;;;;;;10414169;28;20244;-63
2022/01/09 01:28:50;;;;;;;4.97;3.58;;;;;;;;;;10416460;28;20199;-63
2022/01/09 01:33:51;;;;;;;5.88;3.53;;;;;;;;;;10413893;28;20223;-63
2022/01/09 01:38:52;;;;;;;3.53;2.65;;;;;;;;;;10415204;28;20197;-63
2022/01/09 01:43:53;;;;;;;3.67;3.47;;;;;;;;;;10419711;28;20201;-63
2022/01/09 01:48:54;;;;;;;3.50;2.78;;;;;;;;;;10416361;28;20223;-63
2022/01/09 01:53:56;;;;;;;2.28;2.08;;;;;;;;;;10401764;28;20624;-63
2022/01/09 01:58:57;;;;;;;2.63;2.38;;;;;;;;;;10417371;28;20195;-64
2022/01/09 02:03:58;;;;;;;2.55;2.13;;;;;;;;;;10408934;28;20206;-63
2022/01/09 02:08:59;;;;;;;2.08;1.98;;;;;;;;;;10415054;28;20202;-63
2022/01/09 02:14:00;;;;;;;3.78;2.58;;;;;;;;;;10413290;28;20694;-63
2022/01/09 02:19:03;;;;;;;2.33;2.20;;;;;;;;;;10412803;28;20279;-63
2022/01/09 02:24:04;;;;;;;2.00;1.88;;;;;;;;;;10404513;28;20200;-63
2022/01/09 02:29:05;;;;;;;1.80;1.70;;;;;;;;;;10408293;28;20714;-63
2022/01/09 02:34:06;;;;;;;2.95;2.25;;;;;;;;;;10414595;28;20237;-63
2022/01/09 02:39:07;;;;;;;2.30;2.20;;;;;;;;;;10417647;28;20222;-63
2022/01/09 02:44:10;;;;;;;2.40;2.20;;;;;;;;;;10420770;28;20191;-63
2022/01/09 02:49:11;;;;;;;3.30;2.92;;;;;;;;;;10414259;28;20229;-63
2022/01/09 02:59:32;;;;;;;4.95;4.22;;;;;;;;;;10414225;28;20201;-64
2022/01/09 03:04:33;;;;;;;6.35;3.47;;;;;;;;;;10414354;28;20212;-64
2022/01/09 03:09:34;;;;;;;8.15;4.72;;;;;;;;;;10414776;28;20191;-63
2022/01/09 03:14:35;;;;;;;5.25;4.72;;;;;;;;;;10412671;28;20199;-63
2022/01/09 03:19:36;;;;;;;5.53;4.60;;;;;;;;;;10411343;28;20719;-63
2022/01/09 03:24:37;;;;;;;5.28;4.00;;;;;;;;;;10410195;28;20199;-63
2022/01/09 03:29:39;;;;;;;2.10;2.00;;;;;;;;;;10424054;28;20194;-63
2022/01/09 03:34:40;;;;;;;3.13;2.85;;;;;;;;;;10421500;28;20331;-63
2022/01/09 03:39:41;;;;;;;4.18;3.83;;;;;;;;;;10412834;28;20187;-64
2022/01/09 03:44:42;;;;;;;3.70;3.20;;;;;;;;;;10421743;28;20687;-63
2022/01/09 03:49:43;;;;;;;7.25;3.33;;;;;;;;;;10421356;28;20327;-63
2022/01/09 03:54:44;;;;;;;3.55;3.17;;;;;;;;;;10420433;28;20199;-63
2022/01/09 03:59:45;;;;;;;3.13;2.80;;;;;;;;;;10419291;28;20203;-63
2022/01/09 04:04:46;;;;;;;3.88;3.42;;;;;;;;;;10421460;28;20207;-63
2022/01/09 04:09:48;;;;;;;2.70;2.50;;;;;;;;;;10420210;28;20265;-63
2022/01/09 04:14:49;;;;;;;2.28;2.17;;;;;;;;;;10420871;28;20198;-63
2022/01/09 04:19:50;;;;;;;2.25;2.15;;;;;;;;;;10418985;28;20281;-63
2022/01/09 04:24:51;;;;;;;2.97;2.45;;;;;;;;;;10418399;28;20196;-61
2022/01/09 04:29:52;;;;;;;2.55;2.42;;;;;;;;;;10419681;28;20630;-63
2022/01/09 04:34:53;;;;;;;3.20;2.65;;;;;;;;;;10417950;28;20211;-64
2022/01/09 04:39:55;;;;;;;3.70;3.10;;;;;;;;;;10419776;28;20647;-63
2022/01/09 04:44:56;;;;;;;2.65;2.50;;;;;;;;;;10417327;28;21144;-63
2022/01/09 04:49:59;;;;;;;3.60;3.30;;;;;;;;;;10417200;28;20290;-64
2022/01/09 04:55:01;;;;;;;2.25;2.15;;;;;;;;;;10420544;28;20194;-60
2022/01/09 05:00:03;;;;;;;3.25;3.05;;;;;;;;;;10420999;28;20790;-62
2022/01/09 05:05:05;;;;;;;3.40;3.10;;;;;;;;;;10416904;28;20242;-63
2022/01/09 05:10:07;;;;;;;3.40;3.20;;;;;;;;;;10420366;28;20272;-62
2022/01/09 05:15:09;;;;;;;3.63;3.42;;;;;;;;;;10412088;28;20273;-62
2022/01/09 05:20:10;;;;;;;3.33;3.22;;;;;;;;;;10415366;28;20207;-62
2022/01/09 05:25:11;;;;;;;3.90;3.17;;;;;;;;;;10414778;28;20195;-62
2022/01/09 05:30:12;;;;;;;3.10;3.00;;;;;;;;;;10418626;28;20226;-62
2022/01/09 05:35:13;;;;;;;3.17;3.08;;;;;;;;;;10415524;28;20302;-62
2022/01/09 05:40:14;;;;;;;3.28;3.08;;;;;;;;;;10419376;28;20248;-62
2022/01/09 05:45:19;;;;;;;3.05;2.95;;;;;;;;;;10417090;28;20626;-63
2022/01/09 05:50:20;;;;;;;3.13;2.90;;;;;;;;;;10412256;28;20330;-62
2022/01/09 05:55:22;;;;;;;3.65;3.40;;;;;;;;;;10408903;28;20428;-62
2022/01/09 06:00:23;;;;;;;3.97;3.67;;;;;;;;;;10410713;28;20241;-63
2022/01/09 06:05:24;;;;;;;3.72;3.47;;;;;;;;;;10412586;28;20207;-63
2022/01/09 06:10:25;;;;;;;3.22;2.95;;;;;;;;;;10414970;28;20207;-62
2022/01/09 06:15:26;;;;;;;4.47;4.00;;;;;;;;;;10414855;28;20750;-63
2022/01/09 06:20:27;;;;;;;3.67;3.10;;;;;;;;;;10414115;28;20210;-62
2022/01/09 06:25:28;;;;;;;4.00;3.70;;;;;;;;;;10415401;28;20228;-62
2022/01/09 06:30:29;;;;;;;4.25;3.63;;;;;;;;;;10411836;28;20225;-62
2022/01/09 06:35:30;;;;;;;3.42;3.13;;;;;;;;;;10411238;28;20190;-62
2022/01/09 06:40:31;;;;;;;4.05;3.75;;;;;;;;;;10404684;28;20652;-63
2022/01/09 06:45:32;;;;;;;4.80;4.03;;;;;;;;;;10413536;28;20191;-62
2022/01/09 06:50:33;;;;;;;6.03;4.75;;;;;;;;;;10410284;28;20223;-63
2022/01/09 06:55:34;;;;;;;5.57;3.88;;;;;;;;;;10409358;28;20674;-63
2022/01/09 07:00:36;;;;;;;4.93;4.40;;;;;;;;;;10416914;28;20764;-63
2022/01/09 07:05:37;;;;;;;6.13;4.88;;;;;;;;;;10414687;28;20256;-63
2022/01/09 07:10:38;;;;;;;6.75;3.90;;;;;;;;;;10418522;28;20240;-63
2022/01/09 07:15:39;;;;;;;4.00;3.70;;;;;;;;;;10417381;28;20191;-63
2022/01/09 07:20:40;;;;;;;4.38;3.97;;;;;;;;;;10421748;28;20214;-63
2022/01/09 07:25:41;;;;;;;3.78;3.42;;;;;;;;;;10417968;28;20200;-64
2022/01/09 07:30:42;;;;;;;3.35;3.25;;;;;;;;;;10420627;28;20219;-63
2022/01/09 07:35:43;;;;;;;3.70;3.42;;;;;;;;;;10410433;28;20229;-63
2022/01/09 07:40:44;;;;;;;6.07;3.28;;;;;;;;;;10411088;28;20211;-63
2022/01/09 07:45:45;;;;;;;3.75;3.45;;;;;;;;;;10423370;28;20198;-64
2022/01/09 07:50:46;;;;;;;3.42;3.17;;;;;;;;;;10422484;28;20581;-63
2022/01/09 07:55:47;;;;;;;3.35;3.20;;;;;;;;;;10406660;28;20195;-63
2022/01/09 08:00:48;;;;;;;4.45;3.90;;;;;;;;;;10421632;28;20277;-62
2022/01/09 08:05:49;;;;;;;4.38;3.90;;;;;;;;;;10422964;28;20260;-63
2022/01/09 08:10:52;;;;;;;5.50;4.07;;;;;;;;;;10422983;28;20214;-63
2022/01/09 08:15:53;;;;;;;4.07;3.40;;;;;;;;;;10418441;28;20198;-63
2022/01/09 08:20:54;;;;;;;3.05;2.85;;;;;;;;;;10417845;28;20259;-63
2022/01/09 08:25:55;;;;;;;2.83;2.67;;;;;;;;;;10418993;28;20195;-63
2022/01/09 08:30:56;;;;;;;3.95;3.03;;;;;;;;;;10418775;28;20217;-63
2022/01/09 08:35:57;;;;;;;3.10;3.00;;;;;;;;;;10417869;28;20569;-63
2022/01/09 08:40:58;;;;;;;4.28;3.08;;;;;;;;;;10421808;28;20277;-63
2022/01/09 08:45:59;;;;;;;3.50;3.30;;;;;;;;;;10415363;28;20262;-62
2022/01/09 08:51:00;;;;;;;3.95;2.83;;;;;;;;;;10419634;28;20470;-63
2022/01/09 08:56:02;;;;;;;2.65;2.45;;;;;;;;;;10418120;28;20642;-63
2022/01/09 09:01:03;;;;;;;2.78;2.63;;;;;;;;;;10416910;28;20209;-63
2022/01/09 09:06:04;;;;;;;3.38;3.17;;;;;;;;;;10414580;28;20194;-62
2022/01/09 09:11:06;;;;;;;2.92;2.83;;;;;;;;;;10419787;28;20213;-63
2022/01/09 09:16:09;;;;;;;4.05;3.60;;;;;;;;;;10416206;28;20262;-63
2022/01/09 09:21:10;;;;;;;3.10;2.90;;;;;;;;;;10414067;28;20615;-64
2022/01/09 09:26:11;;;;;;;2.30;2.20;;;;;;;;;;10412153;28;20198;-64
2022/01/09 09:31:12;;;;;;;3.38;3.13;;;;;;;;;;10416724;28;20234;-64
2022/01/09 09:36:14;;;;;;;2.13;2.13;;;;;;;;;;10417379;28;20222;-63
2022/01/09 09:41:15;;;;;;;2.70;2.50;;;;;;;;;;10415347;28;20663;-63
2022/01/09 09:46:16;;;;;;;2.50;2.30;;;;;;;;;;10411651;28;20203;-62
2022/01/09 09:51:18;;;;;;;2.88;2.67;;;;;;;;;;10373226;28;20224;-63
2022/01/09 09:56:19;;;;;;;2.92;2.72;;;;;;;;;;10375310;28;20192;-63
2022/01/09 10:01:30;;;;;;;2.83;2.65;;;;;;;;;;10376093;28;20265;-63
2022/01/09 10:06:44;;;;;;;2.70;2.53;;;;;;;;;;10374524;28;20196;-63
2022/01/09 10:11:45;;;;;;;2.47;2.40;;;;;;;;;;10374705;28;20223;-63
2022/01/09 10:17:05;;;;;;;3.08;2.83;;;;;;;;;;10373719;28;20188;-63
2022/01/09 10:22:06;;;;;;;3.17;3.05;;;;;;;;;;10367255;28;20199;-64
2022/01/09 10:27:07;;;;;;;3.20;3.10;;;;;;;;;;10372328;28;20207;-63
2022/01/09 10:32:16;;;;;;;3.22;2.97;;;;;;;;;;10373195;28;20216;-62
2022/01/09 10:37:17;;;;;;;3.35;3.05;;;;;;;;;;10379066;28;20259;-62
2022/01/09 10:42:18;;;;;;;2.95;2.85;;;;;;;;;;10377454;28;20234;-63
2022/01/09 10:47:20;;;;;;;3.60;3.40;;;;;;;;;;10386324;28;20216;-63
2022/01/09 10:52:21;;;;;;;3.53;3.33;;;;;;;;;;10414693;28;20215;-63
2022/01/09 10:57:27;;;;;;;4.05;3.75;;;;;;;;;;10402256;28;20672;-63
2022/01/09 11:02:28;;;;;;;3.50;3.30;;;;;;;;;;10412060;28;20215;-63
2022/01/09 11:07:29;;;;;;;3.45;3.33;;;;;;;;;;10412057;28;20634;-64
2022/01/09 11:12:42;;;;;;;6.97;3.15;;;;;;;;;;10398888;28;20281;-63
2022/01/09 11:17:44;;;;;;;3.60;3.30;;;;;;;;;;10414597;28;20195;-63
2022/01/09 11:22:47;;;;;;;3.75;3.53;;;;;;;;;;10414629;28;20206;-63
2022/01/09 11:28:07;;;;;;;4.38;4.18;;;;;;;;;;10401173;28;20236;-64
2022/01/09 11:33:24;;;;;;;3.83;3.60;;;;;;;;;;10416727;28;20775;-63
2022/01/09 11:38:28;;;;;;;3.28;2.70;;;;;;;;;;10409743;28;20674;-63
2022/01/09 11:43:30;;;;;;;3.10;2.83;;;;;;;;;;10416516;28;20267;-63
2022/01/09 11:48:42;;;;;;;2.10;2.00;;;;;;;;;;10421258;28;20215;-63
2022/01/09 11:54:00;;;;;;;2.42;2.33;;;;;;;;;;10403993;28;20265;-63
2022/01/09 11:59:18;;;;;;;2.30;2.08;;;;;;;;;;10427054;28;20211;-63
2022/01/09 12:04:31;;;;;;;1.90;1.80;;;;;;;;;;10422232;28;20221;-63
2022/01/09 12:09:33;;;;;;;1.50;1.50;;;;;;;;;;10415829;28;20222;-64
2022/01/09 12:14:56;;;;;;;2.80;1.60;;;;;;;;;;10417475;28;20223;-64
2022/01/09 12:20:05;;;;;;;2.90;2.80;;;;;;;;;;10413639;28;20293;-62
2022/01/09 12:25:24;;;;;;;1.33;1.33;;;;;;;;;;10418737;28;20196;-63
2022/01/09 12:30:41;;;;;;;1.20;1.20;;;;;;;;;;10416878;28;21224;-63
2022/01/09 12:35:45;;;;;;;1.10;1.10;;;;;;;;;;10420321;28;20568;-63
2022/01/09 12:40:47;;;;;;;1.75;1.75;;;;;;;;;;10421217;28;20226;-63
2022/01/09 12:45:48;;;;;;;1.92;1.40;;;;;;;;;;10417953;28;21078;-63
2022/01/09 12:50:49;;;;;;;1.75;1.75;;;;;;;;;;10418181;28;20227;-63
2022/01/09 12:55:54;;;;;;;1.95;1.10;;;;;;;;;;10395771;28;20256;-63
2022/01/09 13:00:56;;;;;;;1.30;1.30;;;;;;;;;;10418883;28;20312;-63
2022/01/09 13:06:01;;;;;;;1.50;1.38;;;;;;;;;;10417471;28;20231;-64
2022/01/09 13:11:04;;;;;;;1.48;1.48;;;;;;;;;;10411594;28;20207;-63
2022/01/09 13:16:27;;;;;;;7.32;6.82;;;;;;;;;;10416274;28;20192;-64
2022/01/09 13:21:34;;;;;;;2.58;2.47;;;;;;;;;;10414150;28;20581;-64
2022/01/09 13:26:35;;;;;;;2.95;2.70;;;;;;;;;;10412598;28;20294;-64
2022/01/09 13:31:46;;;;;;;5.20;2.42;;;;;;;;;;10415724;28;20221;-64
2022/01/09 13:36:49;;;;;;;2.60;2.40;;;;;;;;;;10418352;28;20194;-63
2022/01/09 13:41:58;;;;;;;3.70;3.40;;;;;;;;;;10394679;28;20195;-63
2022/01/09 13:47:04;;;;;;;4.07;3.78;;;;;;;;;;10410284;28;20234;-63
2022/01/09 13:52:12;;;;;;;2.92;2.70;;;;;;;;;;10399144;28;20578;-64
2022/01/09 13:57:16;;;;;;;3.22;2.50;;;;;;;;;;10448707;28;20230;-64
2022/01/09 14:02:18;;;;;;;2.85;2.63;;;;;;;;;;10456524;28;20225;-63
2022/01/09 14:07:20;;;;;;;3.15;3.03;;;;;;;;;;10452813;28;20682;-63
2022/01/09 14:12:23;;;;;;;5.22;3.67;;;;;;;;;;10451709;28;20511;-64
2022/01/09 14:17:29;;;;;;;4.68;4.28;;;;;;;;;;10453107;28;20286;-62
2022/01/09 14:22:40;;;;;;;3.55;3.20;;;;;;;;;;10429175;28;20221;-63
2022/01/09 14:27:46;;;;;;;6.18;5.47;;;;;;;;;;10455978;28;20191;-63
2022/01/09 14:32:49;;;;;;;7.35;6.47;;;;;;;;;;10450838;28;20588;-64
2022/01/09 14:37:50;;;;;;;6.72;4.82;;;;;;;;;;10449590;28;20189;-63
2022/01/09 14:42:51;;;;;;;7.32;5.82;;;;;;;;;;10451611;28;20189;-62
2022/01/09 14:47:52;;;;;;;5.38;3.38;;;;;;;;;;10439369;28;20215;-60
2022/01/09 14:52:54;;;;;;;6.55;3.22;;;;;;;;;;10412157;28;20211;-62
2022/01/09 14:57:55;;;;;;;3.60;3.30;;;;;;;;;;10407939;28;20195;-62
2022/01/09 15:02:58;;;;;;;8.18;3.70;;;;;;;;;;10390674;28;20281;-65
2022/01/09 15:08:02;;;;;;;7.18;2.63;;;;;;;;;;10414147;28;20195;-63
2022/01/09 15:13:04;;;;;;;7.65;1.83;;;;;;;;;;10411101;28;21467;-64
2022/01/09 15:18:05;;;;;;;8.40;2.78;;;;;;;;;;10415457;28;20198;-65
2022/01/09 15:23:07;;;;;;;7.22;3.05;;;;;;;;;;10418709;28;20701;-65
2022/01/09 15:28:09;;;;;;;8.50;3.30;;;;;;;;;;10419199;28;20203;-63
2022/01/09 15:33:11;;;;;;;5.53;3.70;;;;;;;;;;10418186;28;20235;-64
2022/01/09 15:38:12;;;;;;;3.95;3.53;;;;;;;;;;10420011;28;20286;-64
2022/01/09 15:43:13;;;;;;;10.15;4.30;;;;;;;;;;10418374;28;20203;-64
2022/01/09 15:48:14;;;;;;;6.40;4.05;;;;;;;;;;10417433;28;20215;-65
2022/01/09 15:53:15;;;;;;;10.43;4.55;;;;;;;;;;10414429;28;20218;-65
2022/01/09 15:58:17;;;;;;;7.10;3.80;;;;;;;;;;10414503;28;20231;-65
2022/01/09 16:03:18;;;;;;;7.00;2.75;;;;;;;;;;10418183;28;20331;-65
2022/01/09 16:08:19;;;;;;;3.58;2.20;;;;;;;;;;10417793;28;20192;-65
2022/01/09 16:13:20;;;;;;;4.32;2.63;;;;;;;;;;10416159;28;20326;-64
2022/01/09 16:18:21;;;;;;;5.32;2.35;;;;;;;;;;10394500;28;20183;-63
2022/01/09 16:23:23;;;;;;;5.68;3.60;;;;;;;;;;10413807;28;20217;-64
2022/01/09 16:28:24;;;;;;;6.97;4.05;;;;;;;;;;10411151;28;20211;-64
2022/01/09 16:33:30;;;;;;;10.63;4.30;;;;;;;;;;10408028;28;20227;-63
2022/01/09 16:38:33;;;;;;;9.20;5.85;;;;;;;;;;10412882;28;20199;-64
2022/01/09 16:43:34;;;;;;;14.60;7.25;;;;;;;;;;10407048;28;20618;-64
2022/01/09 16:48:36;;;;;;;8.95;7.40;;;;;;;;;;10399443;28;20210;-63
2022/01/09 16:53:43;;;;;;;11.60;7.38;;;;;;;;;;10401103;28;20257;-64
2022/01/09 16:58:44;;;;;;;15.38;7.97;;;;;;;;;;10404316;28;20199;-66
2022/01/09 17:03:46;;;;;;;10.32;6.68;;;;;;;;;;10408693;28;20219;-66
2022/01/09 17:08:47;;;;;;;10.55;5.82;;;;;;;;;;10414410;28;20195;-64
2022/01/09 17:13:49;;;;;;;8.82;6.72;;;;;;;;;;10411775;28;20639;-64
2022/01/09 17:18:50;;;;;;;10.20;6.95;;;;;;;;;;10410766;28;20277;-63
2022/01/09 17:23:51;;;;;;;12.85;7.20;;;;;;;;;;10387531;28;20203;-64
2022/01/09 17:28:52;;;;;;;10.77;6.43;;;;;;;;;;10406285;28;20198;-65
2022/01/09 17:33:53;;;;;;;8.18;6.03;;;;;;;;;;10401840;28;20622;-64
2022/01/09 17:38:54;;;;;;;11.98;6.40;;;;;;;;;;10412398;28;20194;-64
2022/01/09 17:43:55;;;;;;;9.32;6.35;;;;;;;;;;10413793;28;20699;-64
2022/01/09 17:48:56;;;;;;;13.43;6.68;;;;;;;;;;10393903;28;20250;-64
2022/01/09 17:53:58;;;;;;;14.45;6.45;;;;;;;;;;10394042;28;20226;-64
2022/01/09 17:59:01;;;;;;;8.02;5.75;;;;;;;;;;10406197;28;20636;-65
2022/01/09 18:04:02;;;;;;;7.82;5.80;;;;;;;;;;10402482;28;20277;-63
2022/01/09 18:09:03;;;;;;;12.30;6.30;;;;;;;;;;10398318;28;20187;-62
2022/01/09 18:14:04;;;;;;;9.18;5.65;;;;;;;;;;10411506;28;21013;-63
2022/01/09 18:19:05;;;;;;;9.65;5.78;;;;;;;;;;10407273;28;20206;-63
2022/01/09 18:24:11;;;;;;;12.05;5.63;;;;;;;;;;10415004;28;20241;-63
2022/01/09 18:29:13;;;;;;;9.55;5.53;;;;;;;;;;10409028;28;20218;-64
2022/01/09 18:34:14;;;;;;;11.18;5.47;;;;;;;;;;10421785;28;20834;-64
2022/01/09 18:39:16;;;;;;;11.93;4.45;;;;;;;;;;10404638;28;20248;-63
2022/01/09 18:44:17;;;;;;;9.85;4.88;;;;;;;;;;10410068;28;21266;-63
2022/01/09 18:49:21;;;;;;;8.35;5.13;;;;;;;;;;10440466;28;20570;-64
2022/01/09 18:54:22;;;;;;;10.63;4.82;;;;;;;;;;10454585;28;20246;-64
2022/01/09 18:59:23;;;;;;;11.90;5.07;;;;;;;;;;10460171;28;20562;-63
2022/01/09 19:04:24;;;;;;;15.32;5.40;;;;;;;;;;10466150;28;20225;-63
2022/01/09 19:09:25;;;;;;;8.18;5.38;;;;;;;;;;10462265;28;20194;-63
2022/01/09 19:14:30;;;;;;;8.45;5.28;;;;;;;;;;10461005;28;20677;-64
2022/01/09 19:19:31;;;;;;;12.52;5.47;;;;;;;;;;10455238;28;20190;-64
2022/01/09 19:24:33;;;;;;;11.80;5.10;;;;;;;;;;10454615;28;20796;-64
2022/01/09 19:29:34;;;;;;;12.77;4.88;;;;;;;;;;10454238;28;20202;-64
2022/01/09 19:34:35;;;;;;;10.98;4.43;;;;;;;;;;10459265;28;20233;-64
2022/01/09 19:39:37;;;;;;;13.32;4.80;;;;;;;;;;10458246;28;20202;-65
2022/01/09 19:44:38;;;;;;;13.45;4.90;;;;;;;;;;10455410;28;20198;-64
2022/01/09 19:49:40;;;;;;;8.55;4.40;;;;;;;;;;10459439;28;20272;-65
2022/01/09 19:54:41;;;;;;;11.98;4.80;;;;;;;;;;10457911;28;20209;-64
2022/01/09 19:59:42;;;;;;;13.38;4.68;;;;;;;;;;10458641;28;20201;-65
2022/01/09 20:04:43;;;;;;;11.88;4.47;;;;;;;;;;10451474;28;20241;-65
2022/01/09 20:09:44;;;;;;;11.93;4.20;;;;;;;;;;10457620;28;20198;-64
2022/01/09 20:14:45;;;;;;;10.38;4.80;;;;;;;;;;10456772;28;20206;-64
2022/01/09 20:19:47;;;;;;;7.90;3.67;;;;;;;;;;10456357;28;20608;-64
2022/01/09 20:24:48;;;;;;;8.38;4.28;;;;;;;;;;10453769;28;20201;-65
2022/01/09 20:29:49;;;;;;;8.18;4.20;;;;;;;;;;10453855;28;20190;-64
2022/01/09 20:34:50;;;;;;;9.25;4.18;;;;;;;;;;10453321;28;20226;-65
2022/01/09 20:39:51;;;;;;;9.88;4.18;;;;;;;;;;10458102;28;20234;-66
2022/01/09 20:44:52;;;;;;;12.88;4.63;;;;;;;;;;10436209;28;20196;-63
2022/01/09 20:49:53;;;;;;;8.23;3.72;;;;;;;;;;10452118;28;20323;-64
2022/01/09 20:54:54;;;;;;;10.63;4.13;;;;;;;;;;10460851;28;20206;-64
2022/01/09 20:59:55;;;;;;;6.72;4.70;;;;;;;;;;10454979;28;20198;-64
2022/01/09 21:04:56;;;;;;;13.25;4.82;;;;;;;;;;10455522;28;20757;-64
2022/01/09 21:09:58;;;;;;;12.75;4.53;;;;;;;;;;10456042;28;20198;-65
2022/01/09 21:14:59;;;;;;;12.18;4.35;;;;;;;;;;10448624;28;20215;-65
2022/01/09 21:20:00;;;;;;;9.80;4.38;;;;;;;;;;10453845;28;20243;-64
2022/01/09 21:25:02;;;;;;;6.30;4.53;;;;;;;;;;10458984;28;20573;-65
2022/01/09 21:30:04;;;;;;;14.75;4.82;;;;;;;;;;10453912;28;20213;-64
2022/01/09 21:35:05;;;;;;;12.82;4.43;;;;;;;;;;10436423;28;21157;-64
2022/01/09 21:40:07;;;;;;;7.75;3.78;;;;;;;;;;10452204;28;20225;-64
2022/01/09 21:45:08;;;;;;;9.75;5.10;;;;;;;;;;10452688;28;20206;-64
2022/01/09 21:50:09;;;;;;;9.82;4.40;;;;;;;;;;10452456;28;20333;-64
2022/01/09 21:55:11;;;;;;;5.50;4.05;;;;;;;;;;10453073;28;20214;-64
2022/01/09 22:00:12;;;;;;;17.15;5.38;;;;;;;;;;10455011;28;20190;-65
2022/01/09 22:05:16;;;;;;;7.10;4.28;;;;;;;;;;10451998;28;20813;-64
2022/01/09 22:10:17;;;;;;;10.63;4.35;;;;;;;;;;10455513;28;20198;-64
2022/01/09 22:15:18;;;;;;;9.57;4.85;;;;;;;;;;10456017;28;20928;-64
2022/01/09 22:20:19;;;;;;;8.13;4.88;;;;;;;;;;10456180;28;20194;-65
2022/01/09 22:25:20;;;;;;;11.07;4.72;;;;;;;;;;10449372;28;20209;-63
2022/01/09 22:30:21;;;;;;;10.68;5.10;;;;;;;;;;10451242;28;20194;-64
2022/01/09 22:35:23;;;;;;;12.20;4.85;;;;;;;;;;10455286;28;20227;-65
2022/01/09 22:40:24;;;;;;;10.50;4.53;;;;;;;;;;10455733;28;20194;-65
2022/01/09 22:45:28;;;;;;;12.35;5.65;;;;;;;;;;10450812;28;20900;-64
2022/01/09 22:50:29;;;;;;;9.02;5.13;;;;;;;;;;10450194;28;20218;-65
2022/01/09 22:55:30;;;;;;;14.20;6.47;;;;;;;;;;10453268;28;20199;-65
2022/01/09 23:00:37;;;;;;;12.40;5.72;;;;;;;;;;10451050;28;20694;-65
2022/01/09 23:05:39;;;;;;;11.77;5.32;;;;;;;;;;10447905;28;20335;-65
2022/01/09 23:10:40;;;;;;;10.73;5.60;;;;;;;;;;10452681;28;20205;-65
2022/01/09 23:15:41;;;;;;;12.52;5.95;;;;;;;;;;10450469;28;20260;-64
2022/01/09 23:20:42;;;;;;;8.20;5.75;;;;;;;;;;10454581;28;20202;-64
2022/01/09 23:25:43;;;;;;;13.32;5.95;;;;;;;;;;10452090;28;20263;-65
2022/01/09 23:30:44;;;;;;;16.92;6.15;;;;;;;;;;10452275;28;20276;-65
2022/01/09 23:35:45;;;;;;;14.80;5.90;;;;;;;;;;10450789;28;20198;-65
2022/01/09 23:40:46;;;;;;;13.32;5.65;;;;;;;;;;10453600;28;20198;-64
2022/01/09 23:45:49;;;;;;;15.70;6.20;;;;;;;;;;10460926;28;20849;-65
2022/01/09 23:50:52;;;;;;;12.05;6.00;;;;;;;;;;10449820;28;20211;-65
2022/01/09 23:55:53;;;;;;;9.27;5.78;;;;;;;;;;10460022;28;20187;-65
